Time;durP1;ratioP1;P1;durP2;ratioP2;P2;SDS_P1;SDS_P2;PMS_P1;PMS_P2;Temp;Humidity;BMP_temperature;BMP_pressure;BME280_temperature;BME280_humidity;BME280_pressure;Samples;Min_cycle;Max_cycle;Signal;HPM_P1;HPM_P2
2023/05/16 00:00:53;;;;;;;2.40;2.20;;;15.40;70.20;;;;;;5055142;28;20029;-67
2023/05/16 00:03:19;;;;;;;2.30;2.10;;;15.40;70.30;;;;;;5055010;28;20459;-67
2023/05/16 00:05:45;;;;;;;2.30;2.10;;;15.40;70.20;;;;;;5055070;28;20048;-67
2023/05/16 00:08:12;;;;;;;2.13;1.90;;;15.40;70.10;;;;;;5055031;28;20312;-67
2023/05/16 00:10:37;;;;;;;3.00;2.20;;;15.40;70.10;;;;;;5055286;28;20022;-67
2023/05/16 00:13:05;;;;;;;2.10;1.80;;;15.40;70.10;;;;;;5055292;28;20437;-66
2023/05/16 00:15:32;;;;;;;3.00;2.30;;;15.40;70.00;;;;;;5054931;28;20104;-67
2023/05/16 00:17:58;;;;;;;2.25;2.08;;;15.40;70.10;;;;;;5054924;28;20021;-67
2023/05/16 00:20:27;;;;;;;2.25;1.85;;;15.40;70.30;;;;;;5054979;28;20032;-67
2023/05/16 00:22:54;;;;;;;3.58;2.25;;;15.40;69.90;;;;;;5055430;28;20495;-67
2023/05/16 00:25:20;;;;;;;2.50;2.17;;;15.40;70.10;;;;;;5054805;28;20036;-66
2023/05/16 00:27:46;;;;;;;2.72;2.10;;;15.40;70.50;;;;;;5055373;28;20086;-67
2023/05/16 00:30:13;;;;;;;2.90;2.30;;;15.40;70.50;;;;;;5055375;28;20383;-66
2023/05/16 00:32:38;;;;;;;5.50;2.00;;;15.40;70.60;;;;;;5058495;28;20031;-67
2023/05/16 00:35:05;;;;;;;1.90;1.70;;;15.40;70.60;;;;;;5059287;28;20037;-66
2023/05/16 00:37:31;;;;;;;2.63;1.75;;;15.30;70.60;;;;;;5059007;28;20028;-67
2023/05/16 00:39:57;;;;;;;1.73;1.63;;;15.30;71.00;;;;;;5058751;28;20032;-66
2023/05/16 00:42:23;;;;;;;2.00;1.80;;;15.30;71.10;;;;;;5058708;28;20017;-67
2023/05/16 00:44:49;;;;;;;3.25;1.75;;;15.30;70.70;;;;;;5058638;28;20052;-67
2023/05/16 00:47:15;;;;;;;2.25;2.05;;;15.30;71.10;;;;;;5058661;28;20033;-67
2023/05/16 00:49:41;;;;;;;2.78;1.60;;;15.30;71.00;;;;;;5059098;28;20461;-67
2023/05/16 00:52:07;;;;;;;1.73;1.63;;;15.30;71.10;;;;;;5059074;28;20090;-67
2023/05/16 00:54:33;;;;;;;2.35;1.65;;;15.30;70.90;;;;;;5058697;28;20359;-67
2023/05/16 00:57:00;;;;;;;2.13;1.80;;;15.40;71.00;;;;;;5058115;28;20046;-67
2023/05/16 00:59:26;;;;;;;2.90;2.00;;;15.30;70.90;;;;;;5058394;28;20025;-67
2023/05/16 01:01:52;;;;;;;3.00;2.00;;;15.40;70.60;;;;;;5058353;28;20089;-67
2023/05/16 01:04:19;;;;;;;1.83;1.73;;;15.40;71.10;;;;;;5058515;28;20358;-67
2023/05/16 01:06:45;;;;;;;5.35;1.98;;;15.40;70.60;;;;;;5058965;28;20032;-67
2023/05/16 01:09:12;;;;;;;1.98;1.70;;;15.50;70.70;;;;;;5058234;28;20036;-67
2023/05/16 01:11:47;;;;;;;2.72;2.10;;;15.50;70.80;;;;;;5058437;28;20074;-67
2023/05/16 01:14:13;;;;;;;2.28;1.88;;;15.50;70.60;;;;;;5058370;28;20120;-66
2023/05/16 01:17:18;;;;;;;2.15;1.80;;;15.50;71.00;;;;;;5058512;28;20112;-67
2023/05/16 01:19:58;;;;;;;3.45;2.08;;;15.50;70.50;;;;;;5058313;28;20024;-67
2023/05/16 01:22:27;;;;;;;2.30;1.80;;;15.50;70.50;;;;;;5058291;28;20021;-67
2023/05/16 01:25:24;;;;;;;3.83;1.80;;;15.50;70.50;;;;;;5057875;28;20044;-67
2023/05/16 01:27:51;;;;;;;1.83;1.67;;;15.60;70.40;;;;;;5046659;28;20029;-67
2023/05/16 01:30:18;;;;;;;1.92;1.73;;;15.60;70.30;;;;;;5058149;28;20025;-67
2023/05/16 01:32:44;;;;;;;2.45;1.80;;;15.60;70.30;;;;;;5057809;28;20023;-67
2023/05/16 01:35:13;;;;;;;2.55;1.92;;;15.60;70.10;;;;;;5057806;28;20021;-67
2023/05/16 01:37:46;;;;;;;2.28;1.80;;;15.60;70.00;;;;;;5058170;28;20103;-67
2023/05/16 01:40:18;;;;;;;2.42;1.80;;;15.60;70.00;;;;;;5058236;28;20021;-67
2023/05/16 01:42:47;;;;;;;4.65;1.80;;;15.60;70.00;;;;;;5057012;28;20163;-67
2023/05/16 01:45:33;;;;;;;3.55;1.85;;;15.60;70.00;;;;;;5057615;28;20423;-67
2023/05/16 01:48:15;;;;;;;2.50;2.10;;;15.60;70.10;;;;;;5057762;28;20134;-67
2023/05/16 01:50:53;;;;;;;2.72;1.90;;;15.60;70.10;;;;;;5057742;28;20028;-67
2023/05/16 01:53:25;;;;;;;2.92;1.90;;;15.60;70.00;;;;;;5057634;28;20028;-67
2023/05/16 01:55:52;;;;;;;3.55;2.40;;;15.60;69.90;;;;;;5057639;28;20028;-67
2023/05/16 01:58:25;;;;;;;4.72;1.60;;;15.60;69.90;;;;;;5057222;28;20064;-67
2023/05/16 02:00:54;;;;;;;2.95;2.10;;;15.60;69.80;;;;;;5057865;28;20037;-67
2023/05/16 02:03:20;;;;;;;4.07;1.70;;;15.60;69.90;;;;;;5057097;28;20029;-67
2023/05/16 02:05:46;;;;;;;3.17;1.48;;;15.70;69.80;;;;;;5057217;28;20021;-67
2023/05/16 02:08:12;;;;;;;2.45;2.00;;;15.70;69.70;;;;;;5057407;28;20021;-67
2023/05/16 02:10:40;;;;;;;2.22;1.90;;;15.60;69.70;;;;;;5057611;28;20338;-67
2023/05/16 02:13:06;;;;;;;4.95;2.03;;;15.70;69.90;;;;;;5057254;28;20051;-67
2023/05/16 02:15:32;;;;;;;2.38;1.90;;;15.70;69.80;;;;;;5056961;28;20473;-67
2023/05/16 02:17:57;;;;;;;2.92;2.00;;;15.70;69.60;;;;;;5057094;28;20071;-67
2023/05/16 02:20:23;;;;;;;2.38;1.85;;;15.70;69.70;;;;;;5056926;28;20029;-66
2023/05/16 02:22:49;;;;;;;2.83;1.80;;;15.70;69.60;;;;;;5056876;28;20025;-67
2023/05/16 02:25:15;;;;;;;3.50;1.70;;;15.70;69.70;;;;;;5056724;28;20053;-67
2023/05/16 02:27:42;;;;;;;2.30;1.70;;;15.60;69.90;;;;;;5056746;28;20033;-66
2023/05/16 02:30:11;;;;;;;2.53;1.80;;;15.60;69.60;;;;;;5056700;28;20025;-67
2023/05/16 02:32:43;;;;;;;2.00;1.67;;;15.70;70.00;;;;;;5056646;28;20095;-67
2023/05/16 02:35:10;;;;;;;2.15;1.70;;;15.60;69.70;;;;;;5056887;28;20103;-67
2023/05/16 02:37:36;;;;;;;3.50;1.90;;;15.60;69.60;;;;;;5056723;28;20431;-67
2023/05/16 02:40:06;;;;;;;2.15;1.70;;;15.70;69.40;;;;;;5056533;28;20021;-67
2023/05/16 02:42:33;;;;;;;2.15;1.40;;;15.70;69.40;;;;;;5056778;28;20104;-67
2023/05/16 02:44:59;;;;;;;1.23;1.13;;;15.70;69.10;;;;;;5056338;28;20021;-67
2023/05/16 02:47:25;;;;;;;2.08;1.40;;;15.70;69.00;;;;;;5056654;28;20035;-67
2023/05/16 02:49:51;;;;;;;2.88;1.50;;;15.70;68.90;;;;;;5056611;28;20043;-67
2023/05/16 02:52:20;;;;;;;1.42;1.33;;;15.70;68.70;;;;;;5056813;28;20025;-67
2023/05/16 02:54:46;;;;;;;1.40;1.30;;;15.80;68.20;;;;;;5056137;28;20028;-67
2023/05/16 02:57:12;;;;;;;2.30;1.35;;;15.80;67.80;;;;;;5056124;28;20067;-67
2023/05/16 02:59:38;;;;;;;1.50;1.40;;;15.90;67.10;;;;;;5056647;28;20025;-67
2023/05/16 03:02:04;;;;;;;2.83;1.58;;;15.90;67.10;;;;;;5056182;28;20028;-67
2023/05/16 03:04:30;;;;;;;1.67;1.58;;;15.90;67.20;;;;;;5056048;28;20537;-67
2023/05/16 03:06:56;;;;;;;1.90;1.30;;;15.90;67.40;;;;;;5056050;28;20104;-67
2023/05/16 03:09:22;;;;;;;1.42;1.23;;;15.90;67.50;;;;;;5056279;28;20052;-67
2023/05/16 03:11:48;;;;;;;1.55;1.45;;;15.80;67.60;;;;;;5056460;28;20040;-67
2023/05/16 03:14:14;;;;;;;1.75;1.30;;;15.80;67.80;;;;;;5055852;28;20485;-67
2023/05/16 03:16:42;;;;;;;3.67;1.67;;;15.70;68.00;;;;;;5056027;28;20029;-67
2023/05/16 03:19:09;;;;;;;1.40;1.30;;;15.70;68.10;;;;;;5055818;28;20028;-67
2023/05/16 03:21:35;;;;;;;2.00;1.48;;;15.70;68.30;;;;;;5056288;28;20033;-67
2023/05/16 03:24:04;;;;;;;1.83;1.23;;;15.70;68.10;;;;;;5055823;28;20023;-67
2023/05/16 03:26:30;;;;;;;2.47;1.67;;;15.60;68.30;;;;;;5055895;28;20024;-67
2023/05/16 03:28:56;;;;;;;4.03;1.60;;;15.50;68.70;;;;;;5056365;28;20071;-67
2023/05/16 03:31:22;;;;;;;3.17;1.60;;;15.50;69.10;;;;;;5055588;28;20033;-66
2023/05/16 03:33:47;;;;;;;2.85;1.58;;;15.40;69.10;;;;;;5055487;28;20029;-67
2023/05/16 03:36:13;;;;;;;2.38;1.55;;;15.40;69.10;;;;;;5055428;28;20068;-66
2023/05/16 03:38:39;;;;;;;1.95;1.45;;;15.40;69.40;;;;;;5055974;28;20362;-67
2023/05/16 03:41:05;;;;;;;3.15;1.67;;;15.40;69.60;;;;;;5055441;28;20021;-66
2023/05/16 03:43:31;;;;;;;3.47;1.63;;;15.40;70.30;;;;;;5055335;28;20219;-66
2023/05/16 03:45:57;;;;;;;1.60;1.40;;;15.30;71.00;;;;;;5055337;28;20021;-67
2023/05/16 03:48:23;;;;;;;1.48;1.38;;;15.20;70.30;;;;;;5055599;28;20096;-66
2023/05/16 03:50:50;;;;;;;2.00;1.75;;;15.20;70.20;;;;;;5055297;28;20108;-67
2023/05/16 03:53:16;;;;;;;1.50;1.40;;;15.20;70.20;;;;;;5055441;28;20373;-66
2023/05/16 03:55:42;;;;;;;1.55;1.45;;;15.20;70.50;;;;;;5055242;28;20502;-66
2023/05/16 03:58:08;;;;;;;3.53;1.65;;;15.20;70.30;;;;;;5055112;28;20090;-67
2023/05/16 04:00:35;;;;;;;2.05;1.60;;;15.20;71.00;;;;;;5055439;28;20374;-67
2023/05/16 04:03:01;;;;;;;1.92;1.45;;;15.10;70.90;;;;;;5055107;28;20013;-66
2023/05/16 04:05:28;;;;;;;1.73;1.45;;;15.10;70.70;;;;;;5054737;28;20031;-66
2023/05/16 04:07:54;;;;;;;1.60;1.50;;;15.10;70.80;;;;;;5055482;28;20102;-66
2023/05/16 04:10:20;;;;;;;3.00;1.63;;;15.00;71.00;;;;;;5055047;28;20463;-66
2023/05/16 04:12:46;;;;;;;1.85;1.45;;;15.00;70.90;;;;;;5055518;28;20029;-67
2023/05/16 04:15:12;;;;;;;1.75;1.50;;;15.10;71.20;;;;;;5054950;28;20040;-67
2023/05/16 04:17:39;;;;;;;1.55;1.42;;;15.00;71.30;;;;;;5053931;28;20359;-67
2023/05/16 04:20:05;;;;;;;2.15;1.38;;;15.00;71.40;;;;;;5053985;28;20103;-67
2023/05/16 04:22:32;;;;;;;4.22;1.35;;;15.00;71.40;;;;;;5054944;28;20104;-67
2023/05/16 04:24:58;;;;;;;1.20;1.10;;;15.00;71.60;;;;;;5054836;28;20037;-67
2023/05/16 04:27:23;;;;;;;1.60;1.17;;;15.00;71.70;;;;;;5054928;28;20025;-66
2023/05/16 04:29:50;;;;;;;1.40;1.27;;;15.00;71.70;;;;;;5055348;28;20341;-66
2023/05/16 04:32:16;;;;;;;4.13;1.63;;;15.00;72.00;;;;;;5054843;28;20025;-67
2023/05/16 04:34:43;;;;;;;1.73;1.08;;;15.00;71.90;;;;;;5054970;28;20033;-67
2023/05/16 04:37:09;;;;;;;2.55;1.67;;;15.00;72.10;;;;;;5055240;28;20028;-67
2023/05/16 04:39:35;;;;;;;2.30;1.52;;;15.00;72.00;;;;;;5055303;28;20029;-67
2023/05/16 04:42:03;;;;;;;2.75;1.70;;;15.00;72.10;;;;;;5054686;28;20450;-67
2023/05/16 04:44:29;;;;;;;2.08;1.60;;;15.00;72.30;;;;;;5054922;28;20017;-67
2023/05/16 04:46:55;;;;;;;1.60;1.50;;;15.00;72.70;;;;;;5054953;28;20104;-67
2023/05/16 04:49:21;;;;;;;2.63;1.83;;;15.00;72.80;;;;;;5054700;28;20110;-67
2023/05/16 04:51:48;;;;;;;1.35;1.25;;;14.90;72.80;;;;;;5054670;28;20040;-67
2023/05/16 04:54:14;;;;;;;3.00;1.48;;;15.00;72.80;;;;;;5054469;28;20442;-67
2023/05/16 04:56:40;;;;;;;3.03;1.52;;;14.90;73.10;;;;;;5054495;28;20029;-65
2023/05/16 04:59:06;;;;;;;2.20;1.83;;;14.90;73.00;;;;;;5055182;28;20086;-67
2023/05/16 05:01:32;;;;;;;2.30;1.60;;;14.90;73.40;;;;;;5054584;28;20351;-67
2023/05/16 05:03:57;;;;;;;1.65;1.55;;;14.90;73.20;;;;;;5053500;28;20408;-67
2023/05/16 05:06:23;;;;;;;2.72;1.75;;;14.90;73.20;;;;;;5054798;28;20053;-67
2023/05/16 05:08:49;;;;;;;2.33;1.80;;;15.00;73.30;;;;;;5055016;28;20104;-67
2023/05/16 05:11:16;;;;;;;2.30;2.13;;;15.00;73.00;;;;;;5054492;28;20029;-67
2023/05/16 05:13:42;;;;;;;2.05;1.90;;;15.00;73.10;;;;;;5054343;28;20036;-67
2023/05/16 05:16:08;;;;;;;2.78;2.45;;;15.10;73.20;;;;;;5054381;28;20036;-67
2023/05/16 05:18:34;;;;;;;2.13;1.83;;;15.20;73.20;;;;;;5055879;28;20434;-67
2023/05/16 05:21:00;;;;;;;5.65;2.65;;;15.30;73.20;;;;;;5058270;28;20461;-66
2023/05/16 05:23:26;;;;;;;6.43;3.60;;;15.30;73.20;;;;;;5057924;28;20055;-65
2023/05/16 05:25:52;;;;;;;7.43;4.53;;;15.40;73.30;;;;;;5058429;28;20029;-67
2023/05/16 05:28:17;;;;;;;6.80;3.42;;;15.50;73.10;;;;;;5057902;28;20029;-71
2023/05/16 05:30:43;;;;;;;4.78;2.95;;;15.50;73.20;;;;;;5058088;28;20028;-66
2023/05/16 05:33:15;;;;;;;4.22;2.50;;;15.50;72.70;;;;;;5057838;28;20029;-67
2023/05/16 05:35:41;;;;;;;3.20;2.00;;;15.50;72.70;;;;;;5057776;28;20350;-67
2023/05/16 05:38:07;;;;;;;3.13;2.30;;;15.50;72.90;;;;;;5057678;28;20075;-67
2023/05/16 05:40:33;;;;;;;3.15;2.50;;;15.50;72.90;;;;;;5058197;28;20374;-67
2023/05/16 05:42:59;;;;;;;4.32;2.22;;;15.60;72.90;;;;;;5057615;28;20021;-67
2023/05/16 05:45:25;;;;;;;2.97;2.35;;;15.50;73.10;;;;;;5057470;28;20025;-67
2023/05/16 05:47:51;;;;;;;5.18;2.40;;;15.60;73.10;;;;;;5057774;28;20032;-67
2023/05/16 05:50:17;;;;;;;5.88;2.75;;;15.50;73.40;;;;;;5057478;28;20024;-67
2023/05/16 05:52:43;;;;;;;8.32;3.10;;;15.50;73.40;;;;;;5058007;28;20047;-66
2023/05/16 05:55:09;;;;;;;5.28;3.03;;;15.50;73.50;;;;;;5057595;28;20044;-70
2023/05/16 05:57:35;;;;;;;4.30;3.17;;;15.50;73.50;;;;;;5057183;28;20052;-68
2023/05/16 06:00:03;;;;;;;7.68;4.35;;;15.50;73.50;;;;;;5057269;28;20350;-69
2023/05/16 06:02:29;;;;;;;5.93;3.20;;;15.50;73.30;;;;;;5057520;28;20021;-68
2023/05/16 06:04:55;;;;;;;4.55;3.42;;;15.60;73.50;;;;;;5057132;28;20123;-68
2023/05/16 06:07:21;;;;;;;4.95;3.55;;;15.60;73.40;;;;;;5057424;28;20398;-68
2023/05/16 06:09:47;;;;;;;4.72;3.28;;;15.60;73.40;;;;;;5057358;28;20451;-68
2023/05/16 06:12:14;;;;;;;4.75;3.20;;;15.60;73.40;;;;;;5056070;28;20058;-68
2023/05/16 06:14:39;;;;;;;4.30;3.08;;;15.60;73.50;;;;;;5057235;28;20036;-68
2023/05/16 06:17:05;;;;;;;5.57;2.95;;;15.60;73.60;;;;;;5057168;28;20029;-69
2023/05/16 06:19:31;;;;;;;5.13;3.10;;;15.60;73.80;;;;;;5057230;28;20022;-69
2023/05/16 06:21:57;;;;;;;6.15;2.90;;;15.60;73.90;;;;;;5057130;28;20147;-68
2023/05/16 06:24:23;;;;;;;4.25;2.80;;;15.60;74.10;;;;;;5056804;28;20028;-69
2023/05/16 06:26:49;;;;;;;4.68;2.75;;;15.60;74.10;;;;;;5057321;28;20036;-68
2023/05/16 06:29:16;;;;;;;3.55;2.58;;;15.60;74.10;;;;;;5055360;28;20025;-69
2023/05/16 06:31:42;;;;;;;4.00;2.17;;;15.60;73.90;;;;;;5057230;28;20068;-68
2023/05/16 06:34:08;;;;;;;2.85;2.40;;;15.60;73.80;;;;;;5056865;28;20306;-68
2023/05/16 06:36:34;;;;;;;5.18;2.42;;;15.60;73.20;;;;;;5056558;28;20021;-68
2023/05/16 06:39:00;;;;;;;2.33;2.00;;;15.60;72.70;;;;;;5056825;28;20378;-69
2023/05/16 06:41:25;;;;;;;4.13;2.30;;;15.70;72.50;;;;;;5056517;28;20025;-68
2023/05/16 06:43:51;;;;;;;2.80;2.50;;;15.60;72.50;;;;;;5056450;28;20445;-68
2023/05/16 06:46:17;;;;;;;3.35;2.38;;;15.60;72.30;;;;;;5056477;28;20029;-68
2023/05/16 06:48:43;;;;;;;3.80;2.25;;;15.60;72.20;;;;;;5056693;28;20025;-68
2023/05/16 06:51:09;;;;;;;4.70;2.72;;;15.60;72.20;;;;;;5056329;28;20025;-68
2023/05/16 06:53:35;;;;;;;2.58;2.28;;;15.60;72.20;;;;;;5056442;28;20028;-68
2023/05/16 06:56:01;;;;;;;3.15;2.42;;;15.50;72.00;;;;;;5056479;28;20033;-67
2023/05/16 06:58:27;;;;;;;2.60;2.30;;;15.50;71.90;;;;;;5056004;28;20048;-67
2023/05/16 07:00:53;;;;;;;2.85;2.30;;;15.50;71.80;;;;;;5056421;28;20025;-67
2023/05/16 07:03:19;;;;;;;4.60;2.10;;;15.50;71.80;;;;;;5056273;28;20017;-67
2023/05/16 07:05:45;;;;;;;2.30;2.00;;;15.50;71.80;;;;;;5055990;28;20079;-67
2023/05/16 07:08:11;;;;;;;4.05;2.00;;;15.40;71.80;;;;;;5056201;28;20024;-68
2023/05/16 07:10:38;;;;;;;4.05;2.13;;;15.40;71.70;;;;;;5056478;28;20032;-68
2023/05/16 07:13:04;;;;;;;4.75;2.30;;;15.40;72.00;;;;;;5055862;28;20021;-67
2023/05/16 07:15:31;;;;;;;5.40;2.47;;;15.30;72.30;;;;;;5056071;28;20033;-67
2023/05/16 07:17:57;;;;;;;3.95;2.55;;;15.30;72.90;;;;;;5056261;28;20036;-68
2023/05/16 07:20:23;;;;;;;6.32;2.75;;;15.20;73.10;;;;;;5055801;28;20025;-67
2023/05/16 07:22:49;;;;;;;4.88;2.38;;;15.20;73.30;;;;;;5055769;28;20324;-67
2023/05/16 07:25:15;;;;;;;7.43;2.90;;;15.20;73.50;;;;;;5056139;28;20536;-69
2023/05/16 07:27:43;;;;;;;5.50;2.80;;;15.10;73.40;;;;;;5055667;28;20049;-68
2023/05/16 07:30:11;;;;;;;4.95;2.70;;;15.20;74.00;;;;;;5055632;28;20410;-69
2023/05/16 07:32:38;;;;;;;5.13;3.03;;;15.20;74.00;;;;;;5055532;28;20020;-68
2023/05/16 07:35:04;;;;;;;4.28;2.60;;;15.20;74.10;;;;;;5056023;28;20506;-68
2023/05/16 07:37:30;;;;;;;3.95;2.10;;;15.20;74.10;;;;;;5055654;28;20029;-68
2023/05/16 07:39:56;;;;;;;3.20;2.30;;;15.20;73.80;;;;;;5055414;28;20028;-68
2023/05/16 07:42:22;;;;;;;3.40;2.50;;;15.20;74.20;;;;;;5055266;28;20021;-68
2023/05/16 07:44:48;;;;;;;3.28;2.38;;;15.20;74.10;;;;;;5055266;28;20021;-69
2023/05/16 07:47:14;;;;;;;4.85;2.72;;;15.20;74.20;;;;;;5055859;28;20346;-68
2023/05/16 07:49:40;;;;;;;4.90;2.60;;;15.30;73.90;;;;;;5055319;28;20029;-68
2023/05/16 07:52:06;;;;;;;10.07;4.10;;;15.40;74.50;;;;;;5055291;28;20032;-69
2023/05/16 07:54:34;;;;;;;11.77;5.78;;;15.40;74.00;;;;;;5055192;28;20021;-68
2023/05/16 07:57:00;;;;;;;8.45;4.13;;;15.50;73.80;;;;;;5055108;28;20045;-68
2023/05/16 07:59:27;;;;;;;5.15;2.70;;;15.60;73.60;;;;;;5055163;28;20032;-68
2023/05/16 08:01:54;;;;;;;6.07;2.30;;;15.60;73.60;;;;;;5055162;28;20049;-68
2023/05/16 08:04:20;;;;;;;4.95;2.90;;;15.70;73.60;;;;;;5055313;28;20071;-68
2023/05/16 08:06:46;;;;;;;2.88;2.30;;;15.70;73.30;;;;;;5055095;28;20040;-68
2023/05/16 08:09:12;;;;;;;7.32;3.05;;;15.70;73.20;;;;;;5055051;28;20021;-69
2023/05/16 08:11:44;;;;;;;6.32;2.30;;;15.70;73.10;;;;;;5055274;28;20029;-68
2023/05/16 08:14:10;;;;;;;4.63;2.30;;;15.70;73.10;;;;;;5054036;28;20057;-69
2023/05/16 08:16:36;;;;;;;3.45;2.50;;;15.80;73.10;;;;;;5054925;28;20443;-69
2023/05/16 08:19:02;;;;;;;25.00;10.68;;;15.80;73.90;;;;;;5055525;28;20036;-69
2023/05/16 08:21:29;;;;;;;8.93;4.55;;;15.70;73.70;;;;;;5055460;28;20032;-69
2023/05/16 08:23:55;;;;;;;3.60;2.70;;;15.80;73.70;;;;;;5054872;28;20483;-68
2023/05/16 08:26:21;;;;;;;4.65;3.20;;;15.70;73.90;;;;;;5054908;28;20072;-68
2023/05/16 08:28:47;;;;;;;16.10;6.72;;;15.80;73.90;;;;;;5054848;28;20029;-69
2023/05/16 08:31:12;;;;;;;21.25;9.15;;;15.90;74.00;;;;;;5055081;28;20037;-68
2023/05/16 08:33:38;;;;;;;17.70;7.65;;;15.90;73.60;;;;;;5054743;28;20049;-68
2023/05/16 08:36:05;;;;;;;7.88;3.47;;;16.00;73.70;;;;;;5055286;28;20021;-69
2023/05/16 08:38:31;;;;;;;7.78;3.30;;;16.00;73.80;;;;;;5054824;28;20029;-68
2023/05/16 08:40:57;;;;;;;6.78;3.38;;;16.10;73.60;;;;;;5054797;28;20032;-68
2023/05/16 08:43:23;;;;;;;6.85;3.45;;;16.20;73.80;;;;;;5054937;28;20035;-68
2023/05/16 08:45:49;;;;;;;9.23;3.30;;;16.20;73.80;;;;;;5055255;28;20017;-69
2023/05/16 08:48:17;;;;;;;7.13;3.63;;;16.30;73.80;;;;;;5055248;28;20036;-68
2023/05/16 08:50:43;;;;;;;7.68;4.13;;;16.40;73.70;;;;;;5055073;28;20382;-69
2023/05/16 08:53:10;;;;;;;7.22;3.30;;;16.50;73.80;;;;;;5057120;28;20106;-68
2023/05/16 08:55:38;;;;;;;4.95;3.05;;;16.60;73.80;;;;;;5058475;28;20036;-69
2023/05/16 08:58:04;;;;;;;4.18;2.75;;;16.80;73.70;;;;;;5058320;28;20055;-69
2023/05/16 09:00:30;;;;;;;10.27;2.97;;;17.00;73.40;;;;;;5058468;28;20481;-69
2023/05/16 09:02:57;;;;;;;4.13;2.72;;;17.30;73.30;;;;;;5058358;28;20025;-68
2023/05/16 09:05:23;;;;;;;4.10;2.53;;;17.50;72.80;;;;;;5058551;28;20025;-68
2023/05/16 09:07:49;;;;;;;5.85;2.55;;;17.60;72.50;;;;;;5058294;28;20035;-69
2023/05/16 09:10:15;;;;;;;3.97;2.60;;;17.70;72.30;;;;;;5058266;28;20378;-68
2023/05/16 09:12:42;;;;;;;2.55;2.10;;;17.80;72.00;;;;;;5058770;28;20465;-68
2023/05/16 09:15:10;;;;;;;4.47;2.50;;;17.80;71.70;;;;;;5057084;28;20023;-68
2023/05/16 09:17:39;;;;;;;5.63;3.30;;;17.70;71.80;;;;;;5058303;28;20052;-68
2023/05/16 09:20:17;;;;;;;8.13;3.90;;;17.70;71.60;;;;;;5058614;28;20017;-68
2023/05/16 09:22:57;;;;;;;5.10;3.08;;;17.70;71.50;;;;;;5058576;28;20095;-68
2023/05/16 09:25:28;;;;;;;5.50;2.97;;;17.60;71.60;;;;;;5058023;28;20032;-68
2023/05/16 09:27:54;;;;;;;5.75;3.58;;;17.60;71.80;;;;;;5058533;28;20435;-68
2023/05/16 09:30:23;;;;;;;8.55;3.17;;;17.60;71.90;;;;;;5057884;28;20040;-68
2023/05/16 09:32:52;;;;;;;8.57;3.40;;;17.70;71.80;;;;;;5058386;28;20031;-68
2023/05/16 09:35:20;;;;;;;6.10;2.92;;;17.70;71.80;;;;;;5057679;28;20065;-68
2023/05/16 09:37:52;;;;;;;6.53;3.08;;;17.80;71.70;;;;;;5058156;28;20450;-68
2023/05/16 09:40:22;;;;;;;6.75;3.22;;;17.80;71.70;;;;;;5057695;28;20021;-68
2023/05/16 09:43:06;;;;;;;7.78;3.75;;;17.80;71.50;;;;;;5056676;28;20406;-68
2023/05/16 09:45:33;;;;;;;5.78;3.20;;;17.90;71.40;;;;;;5057625;28;20013;-68
2023/05/16 09:48:07;;;;;;;4.55;2.80;;;17.90;71.50;;;;;;5057802;28;20032;-68
2023/05/16 09:50:35;;;;;;;8.00;3.22;;;17.80;71.50;;;;;;5057518;28;20033;-68
2023/05/16 09:53:02;;;;;;;5.65;2.83;;;17.80;71.60;;;;;;5057392;28;20025;-68
2023/05/16 09:55:29;;;;;;;4.20;3.03;;;17.90;71.60;;;;;;5057835;28;20021;-68
2023/05/16 09:57:55;;;;;;;4.47;2.80;;;17.90;71.60;;;;;;5056152;28;20053;-68
2023/05/16 10:00:21;;;;;;;4.40;2.67;;;17.90;71.60;;;;;;5057312;28;20504;-68
2023/05/16 10:02:49;;;;;;;6.75;2.83;;;17.90;71.60;;;;;;5057533;28;20036;-68
2023/05/16 10:05:16;;;;;;;4.95;3.20;;;18.00;71.50;;;;;;5056377;28;20021;-68
2023/05/16 10:07:43;;;;;;;9.95;3.47;;;18.00;71.40;;;;;;5057201;28;20378;-68
2023/05/16 10:10:11;;;;;;;9.75;3.50;;;18.00;71.30;;;;;;5057356;28;20021;-68
2023/05/16 10:12:37;;;;;;;5.43;3.20;;;18.00;71.40;;;;;;5057578;28;20025;-68
2023/05/16 10:15:04;;;;;;;4.80;3.20;;;17.90;71.30;;;;;;5056970;28;20028;-68
2023/05/16 10:17:38;;;;;;;4.65;3.10;;;17.90;71.30;;;;;;5056954;28;20029;-68
2023/05/16 10:20:06;;;;;;;5.18;3.05;;;17.90;71.40;;;;;;5057484;28;20469;-69
2023/05/16 10:22:34;;;;;;;5.85;2.90;;;17.90;71.20;;;;;;5056924;28;20514;-68
2023/05/16 10:25:13;;;;;;;4.85;2.95;;;17.90;71.40;;;;;;5057049;28;20101;-68
2023/05/16 10:27:41;;;;;;;5.72;2.80;;;17.80;71.40;;;;;;5057160;28;20075;-68
2023/05/16 10:30:08;;;;;;;3.22;2.63;;;17.80;71.50;;;;;;5057078;28;20025;-68
2023/05/16 10:32:36;;;;;;;6.43;2.78;;;17.80;71.50;;;;;;5055787;28;20033;-68
2023/05/16 10:35:03;;;;;;;3.25;2.40;;;17.70;71.60;;;;;;5056607;28;20025;-68
2023/05/16 10:37:31;;;;;;;5.55;2.67;;;17.70;71.50;;;;;;5056756;28;20029;-68
2023/05/16 10:39:59;;;;;;;3.85;2.50;;;17.70;71.70;;;;;;5056850;28;20021;-68
2023/05/16 10:42:25;;;;;;;4.25;2.58;;;17.70;71.60;;;;;;5056568;28;20029;-68
2023/05/16 10:44:57;;;;;;;2.97;2.17;;;17.80;71.40;;;;;;5056455;28;20396;-68
2023/05/16 10:47:23;;;;;;;3.08;1.85;;;17.80;71.40;;;;;;5056440;28;20458;-68
2023/05/16 10:49:49;;;;;;;3.22;1.80;;;17.90;71.20;;;;;;5056713;28;20025;-68
2023/05/16 10:52:16;;;;;;;3.10;1.50;;;17.90;70.70;;;;;;5055383;28;20353;-68
2023/05/16 10:54:51;;;;;;;3.28;1.60;;;18.00;69.80;;;;;;5056284;28;20052;-69
2023/05/16 10:57:21;;;;;;;3.28;1.20;;;18.00;68.30;;;;;;5056158;28;20044;-68
2023/05/16 10:59:49;;;;;;;2.45;1.05;;;18.10;68.30;;;;;;5056177;28;20025;-68
2023/05/16 11:02:24;;;;;;;1.88;1.50;;;18.10;66.40;;;;;;5056748;28;20379;-68
2023/05/16 11:04:52;;;;;;;6.78;1.70;;;18.20;67.10;;;;;;5056557;28;20095;-69
2023/05/16 11:07:19;;;;;;;2.63;1.17;;;18.20;65.60;;;;;;5056293;28;20119;-69
2023/05/16 11:10:00;;;;;;;2.63;1.05;;;18.30;65.50;;;;;;5056533;28;20031;-68
2023/05/16 11:12:45;;;;;;;1.10;0.98;;;18.30;65.50;;;;;;5056513;28;20037;-69
2023/05/16 11:15:17;;;;;;;1.48;0.98;;;18.30;63.60;;;;;;5055879;28;20033;-69
2023/05/16 11:17:43;;;;;;;2.65;1.10;;;18.30;63.60;;;;;;5055769;28;20095;-69
2023/05/16 11:20:30;;;;;;;2.50;1.17;;;18.30;62.40;;;;;;5056341;28;20013;-68
2023/05/16 11:23:16;;;;;;;7.53;2.67;;;18.30;63.30;;;;;;5056348;28;20037;-68
2023/05/16 11:25:44;;;;;;;3.00;1.27;;;18.20;61.20;;;;;;5034038;28;20045;-69
2023/05/16 11:28:12;;;;;;;1.30;1.00;;;18.20;61.60;;;;;;5034512;28;20034;-69
2023/05/16 11:30:43;;;;;;;1.95;0.65;;;18.30;61.00;;;;;;5034081;28;20041;-69
2023/05/16 11:33:09;;;;;;;7.80;2.17;;;18.40;61.80;;;;;;5034282;28;20067;-69
2023/05/16 11:35:36;;;;;;;6.78;2.53;;;18.50;60.60;;;;;;5033929;28;20503;-69
2023/05/16 11:38:01;;;;;;;1.40;0.80;;;18.50;61.70;;;;;;5034322;28;20120;-69
2023/05/16 11:40:27;;;;;;;1.92;1.00;;;18.60;61.00;;;;;;5034376;28;20109;-69
2023/05/16 11:42:53;;;;;;;1.70;0.65;;;18.70;60.90;;;;;;5033841;28;20467;-69
2023/05/16 11:45:23;;;;;;;0.55;0.55;;;18.70;60.50;;;;;;5033703;28;20109;-69
2023/05/16 11:47:49;;;;;;;1.48;0.60;;;18.70;60.80;;;;;;5033746;28;20033;-69
2023/05/16 11:50:17;;;;;;;0.60;0.60;;;18.80;60.70;;;;;;5033672;28;20034;-69
2023/05/16 11:52:53;;;;;;;1.13;0.40;;;18.80;60.30;;;;;;5017139;28;20063;-69
2023/05/16 11:55:24;;;;;;;3.25;0.50;;;18.80;60.30;;;;;;5033846;28;20026;-68
2023/05/16 11:57:53;;;;;;;0.55;0.40;;;18.80;58.70;;;;;;5033290;28;20077;-68
2023/05/16 12:00:23;;;;;;;1.23;0.57;;;18.80;59.30;;;;;;5033892;28;20033;-68
2023/05/16 12:02:49;;;;;;;0.50;0.50;;;18.90;58.90;;;;;;5045647;28;20033;-69
2023/05/16 12:05:16;;;;;;;1.73;0.45;;;19.00;59.10;;;;;;5055033;28;20407;-69
2023/05/16 12:07:44;;;;;;;1.13;0.40;;;19.10;58.30;;;;;;5055402;28;20029;-69
2023/05/16 12:10:12;;;;;;;0.90;0.43;;;19.20;57.60;;;;;;5055090;28;20513;-69
2023/05/16 12:12:40;;;;;;;1.35;0.45;;;19.30;57.70;;;;;;5055616;28;20059;-69
2023/05/16 12:15:08;;;;;;;1.08;0.43;;;19.30;55.60;;;;;;5055069;28;20032;-69
2023/05/16 12:17:38;;;;;;;1.00;0.40;;;19.40;56.90;;;;;;5054959;28;20565;-69
2023/05/16 12:20:05;;;;;;;1.02;0.30;;;19.40;56.90;;;;;;5055333;28;20036;-69
2023/05/16 12:22:32;;;;;;;1.63;0.55;;;19.50;57.00;;;;;;5055010;28;20101;-69
2023/05/16 12:24:59;;;;;;;1.45;0.47;;;19.60;57.00;;;;;;5054971;28;20029;-69
2023/05/16 12:27:26;;;;;;;1.67;0.35;;;19.60;57.10;;;;;;5056306;28;20028;-69
2023/05/16 12:29:52;;;;;;;1.85;0.80;;;19.60;55.00;;;;;;5059104;28;20100;-68
2023/05/16 12:32:19;;;;;;;0.98;0.80;;;19.60;54.60;;;;;;5059003;28;20021;-69
2023/05/16 12:34:52;;;;;;;0.65;0.60;;;19.60;54.40;;;;;;5057927;28;20127;-68
2023/05/16 12:37:20;;;;;;;1.33;0.60;;;19.60;54.70;;;;;;5059108;28;20068;-69
2023/05/16 12:39:47;;;;;;;0.85;0.50;;;19.60;55.00;;;;;;5058888;28;20102;-69
2023/05/16 12:42:13;;;;;;;0.73;0.57;;;19.60;55.00;;;;;;5059111;28;20047;-69
2023/05/16 12:44:44;;;;;;;1.33;0.60;;;19.60;54.90;;;;;;5058816;28;20049;-69
2023/05/16 12:47:13;;;;;;;1.15;0.50;;;19.60;54.60;;;;;;5059052;28;20319;-69